Time;durP1;ratioP1;P1;durP2;ratioP2;P2;SDS_P1;SDS_P2;PMS_P1;PMS_P2;Temp;Humidity;BMP_temperature;BMP_pressure;BME280_temperature;BME280_humidity;BME280_pressure;Samples;Min_cycle;Max_cycle;Signal;HPM_P1;HPM_P2
2023/07/24 00:02:25;;;;;;;11.65;5.35;;;17.30;99.90;;;;;;5008477;28;20058;-81
2023/07/24 00:04:51;;;;;;;12.23;5.53;;;17.30;99.90;;;;;;5007611;28;20050;-81
2023/07/24 00:07:16;;;;;;;11.23;5.50;;;17.30;99.90;;;;;;4977012;28;20117;-81
2023/07/24 00:09:42;;;;;;;11.25;4.90;;;17.30;99.90;;;;;;4991497;28;20105;-81
2023/07/24 00:12:08;;;;;;;12.23;5.32;;;17.20;99.90;;;;;;4975806;28;20042;-81
2023/07/24 00:14:34;;;;;;;12.75;5.60;;;17.20;99.90;;;;;;4988915;28;20499;-81
2023/07/24 00:16:59;;;;;;;11.50;5.78;;;17.20;99.90;;;;;;5007406;28;20045;-80
2023/07/24 00:19:25;;;;;;;13.45;5.72;;;17.20;99.90;;;;;;5019152;28;20291;-81
2023/07/24 00:21:51;;;;;;;11.80;5.43;;;17.10;99.90;;;;;;4990528;28;20527;-81
2023/07/24 00:24:16;;;;;;;11.45;5.18;;;17.10;99.90;;;;;;4983943;28;20508;-81
2023/07/24 00:26:42;;;;;;;11.75;5.93;;;17.10;99.90;;;;;;5007250;28;20232;-81
2023/07/24 00:29:08;;;;;;;13.18;5.65;;;17.10;99.90;;;;;;4971660;28;20474;-80
2023/07/24 00:31:33;;;;;;;11.07;5.75;;;17.10;99.90;;;;;;5004666;28;20095;-80
2023/07/24 00:34:00;;;;;;;12.85;5.93;;;17.10;99.90;;;;;;4985049;28;20088;-80
2023/07/24 00:36:26;;;;;;;13.45;5.78;;;17.10;99.90;;;;;;4975783;28;20739;-80
2023/07/24 00:38:52;;;;;;;13.35;6.00;;;17.10;99.90;;;;;;5008573;28;20041;-81
2023/07/24 00:41:17;;;;;;;11.55;5.97;;;17.10;99.90;;;;;;5020430;28;20069;-80
2023/07/24 00:43:43;;;;;;;11.95;5.55;;;17.00;99.90;;;;;;5007287;28;20132;-80
2023/07/24 00:46:10;;;;;;;13.88;5.75;;;17.00;99.90;;;;;;5023531;28;20041;-80
2023/07/24 00:48:37;;;;;;;13.20;5.93;;;17.00;99.90;;;;;;5025491;28;20434;-81
2023/07/24 00:51:03;;;;;;;12.88;6.07;;;17.00;99.90;;;;;;4956295;28;20122;-81
2023/07/24 00:53:29;;;;;;;12.38;5.60;;;17.00;99.90;;;;;;4981105;28;20129;-81
2023/07/24 00:55:55;;;;;;;12.27;5.90;;;17.00;99.90;;;;;;5006709;28;20484;-81
2023/07/24 00:58:21;;;;;;;14.75;6.13;;;16.90;99.90;;;;;;5008545;28;20466;-81
2023/07/24 01:00:47;;;;;;;11.57;5.75;;;16.90;99.90;;;;;;4990197;28;20049;-81
2023/07/24 01:03:13;;;;;;;13.35;6.25;;;17.00;99.90;;;;;;5006124;28;20092;-81
2023/07/24 01:05:38;;;;;;;12.60;5.50;;;17.00;99.90;;;;;;4990608;28;20076;-81
2023/07/24 01:08:04;;;;;;;12.60;5.93;;;16.90;99.90;;;;;;4974462;28;20050;-80
2023/07/24 01:10:30;;;;;;;13.57;6.25;;;16.90;99.90;;;;;;5008512;28;20038;-81
2023/07/24 01:13:08;;;;;;;13.52;6.30;;;16.90;99.90;;;;;;4989954;28;20120;-81
2023/07/24 01:15:54;;;;;;;12.43;6.03;;;16.90;99.90;;;;;;5023900;28;20054;-81
2023/07/24 01:18:24;;;;;;;13.00;6.38;;;16.90;99.90;;;;;;5004892;28;20037;-81
2023/07/24 01:20:56;;;;;;;11.98;6.32;;;16.80;99.90;;;;;;5008109;28;20169;-81
2023/07/24 01:23:44;;;;;;;14.77;6.43;;;16.90;99.90;;;;;;5006075;28;20042;-81
2023/07/24 01:26:10;;;;;;;12.40;6.68;;;16.80;99.90;;;;;;5002325;28;20037;-81
2023/07/24 01:28:36;;;;;;;14.68;7.13;;;16.80;99.90;;;;;;5010119;28;20116;-81
2023/07/24 01:31:02;;;;;;;14.30;7.10;;;16.80;99.90;;;;;;5008148;28;20157;-80
2023/07/24 01:33:28;;;;;;;12.25;6.80;;;16.80;99.90;;;;;;4992387;28;20045;-81
2023/07/24 01:35:57;;;;;;;13.85;7.15;;;16.70;99.90;;;;;;5008813;28;20292;-81
2023/07/24 01:38:27;;;;;;;13.93;7.93;;;16.80;99.90;;;;;;5009463;28;20609;-81
2023/07/24 01:40:56;;;;;;;14.32;7.80;;;16.70;99.90;;;;;;5007990;28;20083;-81
2023/07/24 01:43:26;;;;;;;13.35;7.90;;;16.70;99.90;;;;;;5006406;28;20048;-81
2023/07/24 01:45:51;;;;;;;13.70;7.97;;;16.70;99.90;;;;;;5009821;28;20050;-81
2023/07/24 01:48:17;;;;;;;13.50;8.27;;;16.70;99.90;;;;;;4978003;28;20042;-81
2023/07/24 01:50:43;;;;;;;15.23;8.70;;;16.70;99.90;;;;;;4994869;28;20073;-81
2023/07/24 01:53:09;;;;;;;13.55;8.85;;;16.70;99.90;;;;;;5010151;28;20041;-81
2023/07/24 01:55:35;;;;;;;15.40;8.55;;;16.70;99.90;;;;;;4995057;28;20041;-80
2023/07/24 01:58:00;;;;;;;14.85;8.60;;;16.70;99.90;;;;;;4992515;28;20573;-80
2023/07/24 02:00:26;;;;;;;14.80;8.60;;;16.70;99.90;;;;;;4990456;28;20569;-80
2023/07/24 02:02:52;;;;;;;13.48;8.43;;;16.70;99.90;;;;;;4993784;28;20045;-81
2023/07/24 02:05:18;;;;;;;13.77;8.63;;;16.70;99.90;;;;;;5006655;28;20412;-80
2023/07/24 02:07:43;;;;;;;15.35;9.15;;;16.60;99.90;;;;;;5025080;28;20029;-81
2023/07/24 02:10:09;;;;;;;14.05;8.60;;;16.60;99.90;;;;;;4992730;28;20475;-81
2023/07/24 02:12:35;;;;;;;15.63;9.00;;;16.60;99.90;;;;;;5008482;28;20048;-80
2023/07/24 02:15:01;;;;;;;15.32;9.32;;;16.60;99.90;;;;;;5005832;28;20038;-81
2023/07/24 02:17:27;;;;;;;14.07;9.10;;;16.60;99.90;;;;;;5007462;28;20042;-81
2023/07/24 02:19:52;;;;;;;16.00;9.10;;;16.60;99.90;;;;;;4970882;28;20057;-80
2023/07/24 02:22:18;;;;;;;15.80;8.88;;;16.60;99.90;;;;;;5010312;28;20046;-80
2023/07/24 02:24:44;;;;;;;15.25;9.32;;;16.60;99.90;;;;;;4993805;28;20037;-81
2023/07/24 02:27:16;;;;;;;17.25;9.20;;;16.60;99.90;;;;;;4975075;28;20130;-81
2023/07/24 02:29:41;;;;;;;13.93;8.70;;;16.60;99.90;;;;;;5027336;28;20061;-80
2023/07/24 02:32:07;;;;;;;15.02;8.57;;;16.60;99.90;;;;;;4991959;28;20542;-80
2023/07/24 02:34:33;;;;;;;15.43;8.75;;;16.70;99.90;;;;;;4993447;28;20038;-80
2023/07/24 02:36:59;;;;;;;14.48;8.55;;;16.70;99.90;;;;;;5008440;28;20053;-81
2023/07/24 02:39:24;;;;;;;15.15;8.75;;;16.70;99.90;;;;;;5027461;28;20050;-81
2023/07/24 02:41:50;;;;;;;15.73;9.90;;;16.70;99.90;;;;;;4992660;28;20440;-81
2023/07/24 02:44:16;;;;;;;15.85;8.75;;;16.70;99.90;;;;;;4977099;28;20042;-81
2023/07/24 02:46:41;;;;;;;15.15;9.25;;;16.70;99.90;;;;;;5006838;28;20033;-81
2023/07/24 02:49:07;;;;;;;15.00;8.65;;;16.70;99.90;;;;;;5009520;28;20037;-81
2023/07/24 02:51:33;;;;;;;16.85;9.48;;;16.80;99.90;;;;;;5004840;28;20034;-80
2023/07/24 02:53:59;;;;;;;17.40;9.60;;;16.70;99.90;;;;;;4977408;28;20513;-81
2023/07/24 02:56:25;;;;;;;14.77;9.07;;;16.80;99.90;;;;;;5024110;28;20038;-81
2023/07/24 02:58:50;;;;;;;16.85;8.95;;;16.70;99.90;;;;;;5005648;28;20042;-81
2023/07/24 03:01:16;;;;;;;14.45;9.05;;;16.70;99.90;;;;;;4994450;28;20080;-80
2023/07/24 03:03:42;;;;;;;13.32;8.93;;;16.70;99.90;;;;;;5008566;28;20104;-81
2023/07/24 03:06:08;;;;;;;15.52;8.85;;;16.70;99.90;;;;;;5008164;28;20046;-81
2023/07/24 03:08:34;;;;;;;15.23;8.38;;;16.70;99.90;;;;;;4989551;28;20484;-81
2023/07/24 03:11:00;;;;;;;14.90;8.65;;;16.70;99.90;;;;;;5026585;28;20046;-81
2023/07/24 03:13:25;;;;;;;13.10;8.50;;;16.70;99.90;;;;;;5009380;28;20091;-81
2023/07/24 03:16:01;;;;;;;15.00;8.50;;;16.80;99.90;;;;;;5008648;28;20056;-81
2023/07/24 03:18:26;;;;;;;15.80;8.93;;;16.80;99.90;;;;;;4993116;28;20152;-81
2023/07/24 03:20:52;;;;;;;14.93;8.85;;;16.70;99.90;;;;;;4992988;28;20628;-81
2023/07/24 03:23:18;;;;;;;14.57;8.63;;;16.80;99.90;;;;;;5007885;28;20076;-81
2023/07/24 03:25:43;;;;;;;12.95;8.00;;;16.80;99.90;;;;;;4977232;28;20117;-81
2023/07/24 03:28:09;;;;;;;16.08;8.80;;;16.80;99.90;;;;;;5004979;28;20038;-81
2023/07/24 03:30:35;;;;;;;13.48;7.93;;;16.80;99.90;;;;;;4991412;28;20054;-80
2023/07/24 03:33:02;;;;;;;15.85;8.18;;;16.80;99.90;;;;;;5009813;28;20037;-80
2023/07/24 03:35:27;;;;;;;14.32;7.53;;;16.80;99.90;;;;;;4991337;28;20042;-80
2023/07/24 03:37:53;;;;;;;13.27;7.97;;;16.80;99.90;;;;;;4995136;28;20053;-81
2023/07/24 03:40:19;;;;;;;12.88;8.00;;;16.80;99.90;;;;;;5002423;28;20042;-81
2023/07/24 03:42:44;;;;;;;13.98;8.10;;;16.80;99.90;;;;;;4985861;28;20123;-80
2023/07/24 03:45:10;;;;;;;13.95;7.90;;;16.90;99.90;;;;;;4989913;28;20283;-81
2023/07/24 03:47:36;;;;;;;13.57;8.00;;;16.90;99.90;;;;;;5008022;28;20040;-80
2023/07/24 03:50:01;;;;;;;14.82;8.30;;;16.90;99.90;;;;;;5004290;28;20037;-81
2023/07/24 03:52:27;;;;;;;14.88;7.75;;;16.90;99.90;;;;;;5010028;28;20523;-81
2023/07/24 03:54:53;;;;;;;12.65;7.85;;;16.90;99.90;;;;;;4990884;28;20491;-81
2023/07/24 03:57:19;;;;;;;14.18;8.55;;;16.90;99.90;;;;;;4980418;28;20113;-80
2023/07/24 03:59:44;;;;;;;14.60;8.40;;;16.90;99.90;;;;;;5002825;28;20045;-81
2023/07/24 04:02:10;;;;;;;12.25;7.50;;;16.90;99.90;;;;;;4988003;28;20052;-81
2023/07/24 04:04:37;;;;;;;13.15;7.90;;;16.90;99.90;;;;;;4995930;28;20043;-80
2023/07/24 04:07:03;;;;;;;12.10;7.47;;;16.90;99.90;;;;;;4989977;28;20034;-80
2023/07/24 04:09:29;;;;;;;14.30;7.85;;;16.90;99.90;;;;;;4992582;28;20033;-80
2023/07/24 04:11:54;;;;;;;13.63;7.50;;;16.90;99.90;;;;;;5006184;28;20044;-80
2023/07/24 04:14:20;;;;;;;14.57;7.30;;;16.90;99.90;;;;;;4976337;28;20487;-80
2023/07/24 04:16:46;;;;;;;14.60;7.82;;;16.90;99.90;;;;;;5006400;28;20085;-80
2023/07/24 04:19:12;;;;;;;14.10;7.93;;;16.90;99.90;;;;;;5009344;28;20046;-81
2023/07/24 04:21:37;;;;;;;11.98;7.55;;;17.00;99.90;;;;;;5007306;28;20060;-80
2023/07/24 04:24:03;;;;;;;12.73;7.88;;;16.90;99.90;;;;;;4976328;28;20037;-80
2023/07/24 04:26:29;;;;;;;13.35;8.07;;;17.00;99.90;;;;;;5024446;28;20042;-81
2023/07/24 04:28:55;;;;;;;12.68;7.95;;;17.00;99.90;;;;;;4989791;28;20041;-80
2023/07/24 04:31:20;;;;;;;14.82;8.23;;;17.00;99.90;;;;;;5005270;28;20395;-80
2023/07/24 04:33:47;;;;;;;13.23;8.27;;;17.00;99.90;;;;;;5025560;28;20511;-80
2023/07/24 04:36:12;;;;;;;14.15;8.68;;;17.00;99.90;;;;;;5008298;28;20264;-80
2023/07/24 04:38:38;;;;;;;14.05;8.48;;;17.00;99.90;;;;;;4991106;28;20645;-81
2023/07/24 04:41:04;;;;;;;13.40;8.25;;;17.10;99.90;;;;;;4975710;28;20049;-80
2023/07/24 04:43:30;;;;;;;14.00;8.65;;;17.00;99.90;;;;;;5018404;28;20045;-81
2023/07/24 04:45:55;;;;;;;15.68;9.05;;;17.00;99.90;;;;;;5005160;28;20041;-81
2023/07/24 04:48:21;;;;;;;14.18;8.95;;;17.10;99.90;;;;;;5024717;28;20042;-81
2023/07/24 04:50:52;;;;;;;13.32;8.73;;;17.10;99.90;;;;;;4991837;28;20038;-79
2023/07/24 04:53:18;;;;;;;13.90;8.65;;;17.10;99.90;;;;;;5000600;28;20407;-80
2023/07/24 04:55:46;;;;;;;13.95;8.82;;;17.10;99.90;;;;;;4984560;28;20046;-80
2023/07/24 04:58:11;;;;;;;14.55;8.73;;;17.20;99.90;;;;;;4996147;28;20045;-81
2023/07/24 05:00:37;;;;;;;12.40;7.97;;;17.10;99.90;;;;;;5005222;28;20074;-81
2023/07/24 05:03:03;;;;;;;12.82;8.23;;;17.10;99.90;;;;;;4977618;28;20045;-81
2023/07/24 05:05:28;;;;;;;13.18;8.48;;;17.10;99.90;;;;;;5008233;28;20045;-81
2023/07/24 05:07:54;;;;;;;13.35;8.80;;;17.10;99.90;;;;;;4993744;28;20609;-80
2023/07/24 05:10:20;;;;;;;13.20;8.38;;;17.10;99.90;;;;;;4990008;28;20505;-81
2023/07/24 05:12:46;;;;;;;14.65;8.50;;;17.10;99.90;;;;;;4994917;28;20113;-81
2023/07/24 05:15:12;;;;;;;12.68;8.35;;;17.20;99.90;;;;;;4975300;28;20046;-81
2023/07/24 05:17:37;;;;;;;15.05;8.95;;;17.20;99.90;;;;;;4990220;28;20049;-81
2023/07/24 05:20:04;;;;;;;12.60;8.18;;;17.10;99.90;;;;;;4992136;28;20061;-80
2023/07/24 05:22:30;;;;;;;13.60;7.82;;;17.20;99.90;;;;;;5005522;28;20100;-80
2023/07/24 05:24:55;;;;;;;14.55;8.75;;;17.20;99.90;;;;;;4991249;28;21253;-80
2023/07/24 05:27:21;;;;;;;13.45;8.05;;;17.20;99.90;;;;;;4992815;28;20114;-81
2023/07/24 05:29:47;;;;;;;13.43;8.32;;;17.30;99.90;;;;;;5024015;28;20491;-80
2023/07/24 05:32:12;;;;;;;13.82;8.63;;;17.30;99.90;;;;;;4987212;28;20042;-80
2023/07/24 05:34:38;;;;;;;13.50;8.90;;;17.30;99.90;;;;;;4982282;28;20045;-80
2023/07/24 05:37:05;;;;;;;15.15;8.90;;;17.30;99.90;;;;;;5006529;28;20557;-80
2023/07/24 05:39:31;;;;;;;15.15;8.60;;;17.40;99.90;;;;;;5010802;28;20042;-80
2023/07/24 05:41:56;;;;;;;14.20;8.27;;;17.40;99.90;;;;;;4975895;28;20055;-80
2023/07/24 05:44:22;;;;;;;14.00;8.70;;;17.40;99.90;;;;;;5011678;28;20443;-80
2023/07/24 05:46:48;;;;;;;16.75;8.20;;;17.50;99.90;;;;;;4992541;28;20037;-81
2023/07/24 05:49:14;;;;;;;13.82;8.25;;;17.50;99.90;;;;;;4995487;28;20442;-81
2023/07/24 05:51:40;;;;;;;12.00;8.27;;;17.60;99.90;;;;;;5011383;28;20300;-81
2023/07/24 05:54:05;;;;;;;13.15;8.38;;;17.70;99.90;;;;;;5010568;28;20068;-80
2023/07/24 05:56:31;;;;;;;14.85;8.70;;;17.60;99.90;;;;;;5011378;28;20042;-80
2023/07/24 05:58:57;;;;;;;13.40;8.15;;;17.70;99.90;;;;;;5009024;28;20117;-81
2023/07/24 06:01:22;;;;;;;14.85;8.38;;;17.70;99.90;;;;;;4993386;28;20042;-80
2023/07/24 06:03:48;;;;;;;12.82;7.90;;;17.70;99.90;;;;;;4994932;28;20053;-81
2023/07/24 06:06:14;;;;;;;14.75;8.20;;;17.60;99.90;;;;;;5028066;28;20100;-81
2023/07/24 06:08:39;;;;;;;12.02;7.35;;;17.70;99.90;;;;;;4975721;28;20069;-80
2023/07/24 06:11:05;;;;;;;13.07;8.43;;;17.70;99.90;;;;;;4990107;28;20363;-81
2023/07/24 06:13:31;;;;;;;16.38;8.43;;;17.70;99.90;;;;;;5006371;28;20480;-80
2023/07/24 06:15:56;;;;;;;13.13;7.75;;;17.60;99.90;;;;;;4963221;28;20232;-81
2023/07/24 06:18:22;;;;;;;13.27;8.15;;;17.60;99.90;;;;;;4992359;28;20194;-81
2023/07/24 06:20:52;;;;;;;13.52;7.65;;;17.60;99.90;;;;;;4987672;28;20085;-81
2023/07/24 06:23:18;;;;;;;13.82;7.60;;;17.60;99.90;;;;;;5020667;28;20057;-80
2023/07/24 06:25:43;;;;;;;11.82;7.32;;;17.60;99.90;;;;;;4990228;28;20053;-81
2023/07/24 06:28:09;;;;;;;12.40;8.20;;;17.70;99.90;;;;;;4984665;28;20796;-81
2023/07/24 06:30:35;;;;;;;12.32;7.50;;;17.70;99.90;;;;;;5003077;28;20030;-81
2023/07/24 06:33:00;;;;;;;13.82;7.53;;;17.80;99.90;;;;;;5004112;28;20515;-80
2023/07/24 06:35:26;;;;;;;12.20;7.45;;;17.80;99.90;;;;;;5006301;28;20312;-80
2023/07/24 06:37:52;;;;;;;13.48;7.60;;;17.90;99.90;;;;;;4969399;28;20554;-80
2023/07/24 06:40:18;;;;;;;13.27;7.72;;;17.90;99.90;;;;;;4989563;28;20514;-80
2023/07/24 06:42:43;;;;;;;13.10;7.63;;;17.90;99.90;;;;;;5009067;28;20042;-80
2023/07/24 06:45:09;;;;;;;15.48;8.38;;;18.00;99.90;;;;;;5001732;28;20477;-81
2023/07/24 06:47:35;;;;;;;14.55;7.57;;;17.40;99.90;;;;;;4994124;28;20038;-80
2023/07/24 06:50:02;;;;;;;13.35;7.75;;;18.00;99.90;;;;;;5009175;28;20036;-81
2023/07/24 06:52:28;;;;;;;13.70;7.55;;;18.00;99.90;;;;;;5005276;28;20044;-80
2023/07/24 06:54:54;;;;;;;13.32;8.55;;;18.00;99.90;;;;;;5004583;28;20049;-81
2023/07/24 06:57:19;;;;;;;14.48;7.88;;;18.10;99.90;;;;;;4987029;28;20050;-81
2023/07/24 06:59:45;;;;;;;15.07;7.72;;;18.10;99.90;;;;;;4955404;28;20119;-81
2023/07/24 07:02:11;;;;;;;12.32;7.30;;;18.20;99.90;;;;;;5002150;28;20117;-80
2023/07/24 07:04:36;;;;;;;13.50;7.38;;;18.20;99.90;;;;;;5007620;28;20068;-80
2023/07/24 07:07:02;;;;;;;14.27;8.00;;;18.20;99.90;;;;;;4990275;28;20034;-80
2023/07/24 07:09:28;;;;;;;13.20;7.63;;;18.20;99.90;;;;;;5005257;28;20445;-80
2023/07/24 07:11:53;;;;;;;12.68;7.75;;;18.20;99.90;;;;;;5001103;28;20041;-79
2023/07/24 07:14:19;;;;;;;13.55;8.02;;;18.20;99.90;;;;;;5003149;28;20635;-80
2023/07/24 07:16:47;;;;;;;13.32;7.88;;;18.30;99.90;;;;;;4984317;28;20041;-79
2023/07/24 07:19:13;;;;;;;14.25;8.40;;;18.30;99.90;;;;;;4990971;28;20551;-79
2023/07/24 07:21:39;;;;;;;13.38;7.85;;;18.30;99.90;;;;;;5014473;28;20161;-80
2023/07/24 07:24:05;;;;;;;13.25;7.57;;;18.30;99.90;;;;;;4997397;28;20112;-80
2023/07/24 07:26:30;;;;;;;13.30;7.30;;;18.30;99.90;;;;;;4986877;28;20103;-80
2023/07/24 07:28:56;;;;;;;13.43;7.97;;;18.40;99.90;;;;;;5009124;28;20052;-80
2023/07/24 07:31:23;;;;;;;13.27;7.40;;;18.40;99.90;;;;;;5005602;28;20046;-80
2023/07/24 07:33:49;;;;;;;12.40;7.32;;;18.50;99.90;;;;;;4987680;28;20042;-79
2023/07/24 07:36:14;;;;;;;13.27;7.43;;;18.50;99.90;;;;;;5021774;28;20267;-79
2023/07/24 07:38:40;;;;;;;13.25;7.10;;;18.60;99.90;;;;;;4981330;28;20049;-80
2023/07/24 07:41:06;;;;;;;13.95;7.97;;;18.60;99.90;;;;;;5018240;28;20073;-79
2023/07/24 07:43:32;;;;;;;15.35;7.72;;;18.70;99.90;;;;;;4983413;28;20137;-81
2023/07/24 07:45:59;;;;;;;15.30;7.57;;;18.80;99.90;;;;;;4987977;28;20539;-80
2023/07/24 07:48:25;;;;;;;16.00;8.50;;;18.80;99.90;;;;;;5002102;28;20057;-80
2023/07/24 07:50:54;;;;;;;15.02;8.20;;;18.80;99.90;;;;;;5006319;28;20503;-80
2023/07/24 07:53:19;;;;;;;14.02;7.70;;;18.90;99.90;;;;;;5003956;28;20081;-80
2023/07/24 07:55:45;;;;;;;14.60;7.53;;;18.90;99.90;;;;;;4998207;28;20543;-80
2023/07/24 07:58:11;;;;;;;12.85;6.80;;;18.90;99.90;;;;;;5000086;28;20118;-80
2023/07/24 08:00:39;;;;;;;14.05;7.60;;;18.90;99.90;;;;;;5018224;28;20046;-80
2023/07/24 08:03:05;;;;;;;21.17;8.63;;;18.90;99.90;;;;;;4980773;28;20072;-81
2023/07/24 08:05:32;;;;;;;12.80;7.22;;;19.00;99.90;;;;;;4995027;28;20185;-80
2023/07/24 08:07:57;;;;;;;13.00;7.50;;;19.00;99.90;;;;;;5004089;28;20129;-80
2023/07/24 08:10:23;;;;;;;15.63;7.68;;;19.00;99.90;;;;;;4982377;28;20622;-80
2023/07/24 08:12:49;;;;;;;14.73;6.90;;;19.00;99.90;;;;;;4986279;28;20415;-80
2023/07/24 08:15:15;;;;;;;12.80;7.20;;;19.10;99.90;;;;;;5004400;28;20072;-80
2023/07/24 08:17:41;;;;;;;14.18;7.13;;;19.10;99.90;;;;;;5003252;28;20410;-80
2023/07/24 08:20:07;;;;;;;19.30;7.15;;;19.20;99.90;;;;;;5004173;28;20058;-80
2023/07/24 08:22:33;;;;;;;13.38;6.72;;;19.20;99.90;;;;;;5005326;28;20084;-80
2023/07/24 08:24:59;;;;;;;15.48;7.28;;;19.30;99.90;;;;;;5013005;28;20527;-80
2023/07/24 08:27:24;;;;;;;14.93;7.38;;;19.30;99.90;;;;;;5001033;28;20084;-81
2023/07/24 08:29:53;;;;;;;13.40;6.60;;;19.40;99.90;;;;;;5004318;28;20408;-81
2023/07/24 08:32:20;;;;;;;12.75;6.43;;;19.40;99.90;;;;;;5000997;28;20403;-81
2023/07/24 08:34:45;;;;;;;14.20;7.50;;;19.50;99.90;;;;;;4998232;28;20154;-80
2023/07/24 08:37:12;;;;;;;14.77;7.00;;;19.50;99.90;;;;;;4969788;28;20132;-80
2023/07/24 08:39:38;;;;;;;14.23;7.60;;;19.60;99.90;;;;;;5001737;28;20057;-80
2023/07/24 08:42:12;;;;;;;12.93;6.82;;;19.70;99.90;;;;;;4986156;28;20038;-80
2023/07/24 08:44:38;;;;;;;15.30;6.55;;;19.70;99.90;;;;;;5003128;28;20421;-80
2023/07/24 08:47:05;;;;;;;16.13;6.93;;;19.70;99.90;;;;;;5001415;28;20034;-80
2023/07/24 08:49:33;;;;;;;14.85;6.75;;;19.70;99.90;;;;;;5019945;28;20026;-80
2023/07/24 08:52:00;;;;;;;14.52;6.20;;;19.70;99.90;;;;;;5002297;28;20360;-81
2023/07/24 08:54:27;;;;;;;13.68;6.53;;;19.70;99.90;;;;;;5017232;28;20125;-80
2023/07/24 08:56:53;;;;;;;14.70;6.50;;;19.70;99.90;;;;;;4998167;28;20050;-81
2023/07/24 08:59:19;;;;;;;13.52;6.55;;;19.70;99.90;;;;;;4962155;28;20454;-81
2023/07/24 09:01:45;;;;;;;15.82;6.90;;;19.80;99.90;;;;;;5017353;28;20042;-81
2023/07/24 09:04:10;;;;;;;16.23;6.82;;;19.80;99.90;;;;;;4983732;28;20388;-81
2023/07/24 09:06:37;;;;;;;14.35;7.13;;;19.70;99.90;;;;;;5005063;28;20206;-80
2023/07/24 09:09:15;;;;;;;14.00;6.93;;;19.80;99.90;;;;;;5003873;28;20577;-80
2023/07/24 09:11:52;;;;;;;15.05;6.70;;;19.80;99.90;;;;;;4999115;28;20400;-80
2023/07/24 09:14:30;;;;;;;14.45;6.72;;;19.70;99.90;;;;;;4970628;28;20038;-80
2023/07/24 09:17:10;;;;;;;13.50;6.85;;;19.80;99.90;;;;;;4989420;28;20037;-80
2023/07/24 09:19:36;;;;;;;14.73;7.18;;;19.70;99.90;;;;;;5003574;28;20115;-80
2023/07/24 09:22:15;;;;;;;16.60;7.60;;;19.80;99.90;;;;;;4990051;28;20155;-80
2023/07/24 09:24:50;;;;;;;15.57;7.85;;;19.90;99.90;;;;;;4989393;28;20044;-80
2023/07/24 09:27:17;;;;;;;16.30;7.43;;;19.90;99.90;;;;;;4991217;28;20042;-80
2023/07/24 09:29:42;;;;;;;15.57;7.97;;;19.90;99.90;;;;;;4986158;28;20030;-80
2023/07/24 09:32:19;;;;;;;13.55;7.45;;;20.00;99.90;;;;;;4985925;28;20248;-80
2023/07/24 09:34:44;;;;;;;16.92;7.78;;;20.00;99.90;;;;;;5006525;28;20073;-80
2023/07/24 09:37:10;;;;;;;15.43;7.22;;;20.10;99.90;;;;;;4991717;28;20045;-80
2023/07/24 09:39:36;;;;;;;14.25;8.07;;;20.20;99.90;;;;;;4991855;28;20037;-80
2023/07/24 09:42:05;;;;;;;16.50;7.90;;;20.30;99.90;;;;;;4969834;28;20045;-80
2023/07/24 09:44:32;;;;;;;14.93;7.47;;;20.40;99.90;;;;;;5007242;28;20052;-80
2023/07/24 09:46:58;;;;;;;14.63;7.82;;;20.40;99.90;;;;;;5010503;28;20575;-80
2023/07/24 09:49:24;;;;;;;16.40;8.27;;;20.40;99.90;;;;;;4993406;28;20041;-80
2023/07/24 09:51:53;;;;;;;15.73;8.93;;;20.30;99.90;;;;;;5008795;28;20067;-80
2023/07/24 09:54:28;;;;;;;15.82;8.13;;;20.50;99.90;;;;;;4994219;28;20038;-80
2023/07/24 09:56:55;;;;;;;15.45;8.20;;;20.70;99.90;;;;;;5007080;28;20116;-80
2023/07/24 09:59:21;;;;;;;15.27;7.68;;;20.80;99.90;;;;;;4985011;28;20457;-81
2023/07/24 10:01:47;;;;;;;19.70;8.60;;;20.80;99.90;;;;;;5007449;28;20045;-80
2023/07/24 10:04:15;;;;;;;17.30;8.13;;;20.70;99.90;;;;;;4992907;28;20098;-80
2023/07/24 10:06:43;;;;;;;13.70;7.13;;;20.60;99.90;;;;;;5009097;28;20037;-81
2023/07/24 10:09:09;;;;;;;15.18;6.95;;;20.80;99.90;;;;;;4987553;28;20041;-80
2023/07/24 10:11:35;;;;;;;15.07;7.18;;;20.90;99.90;;;;;;4992925;28;20052;-80
2023/07/24 10:14:01;;;;;;;13.73;6.78;;;20.90;99.90;;;;;;4992699;28;20558;-80
2023/07/24 10:16:27;;;;;;;13.50;7.38;;;20.90;99.90;;;;;;4977361;28;20091;-80
2023/07/24 10:18:53;;;;;;;12.55;6.75;;;21.00;99.90;;;;;;4975229;28;20045;-80
2023/07/24 10:21:27;;;;;;;13.73;6.93;;;21.00;99.90;;;;;;4993042;28;20064;-80
2023/07/24 10:23:53;;;;;;;13.32;6.78;;;20.90;99.90;;;;;;5005052;28;20466;-80
2023/07/24 10:26:26;;;;;;;13.25;6.53;;;21.10;99.90;;;;;;4976321;28;20044;-80
2023/07/24 10:28:52;;;;;;;12.70;6.55;;;21.30;99.90;;;;;;4988018;28;20117;-80
2023/07/24 10:31:26;;;;;;;13.48;6.43;;;21.50;99.90;;;;;;5006005;28;20037;-80
2023/07/24 10:33:52;;;;;;;15.93;6.43;;;21.80;99.90;;;;;;5006344;28;20490;-81
2023/07/24 10:36:22;;;;;;;12.43;6.22;;;21.80;99.90;;;;;;5006848;28;20048;-81
2023/07/24 10:38:53;;;;;;;12.43;6.63;;;22.00;99.90;;;;;;5021063;28;20080;-81
2023/07/24 10:41:18;;;;;;;11.52;5.68;;;22.10;99.90;;;;;;4992870;28;20042;-81
2023/07/24 10:43:44;;;;;;;12.82;6.00;;;22.20;99.90;;;;;;4975495;28;20038;-81
2023/07/24 10:46:10;;;;;;;14.57;6.55;;;22.50;99.90;;;;;;4992928;28;20052;-81
2023/07/24 10:48:37;;;;;;;11.18;5.43;;;22.70;99.90;;;;;;4990962;28;20482;-81
2023/07/24 10:51:08;;;;;;;14.50;5.82;;;22.90;99.90;;;;;;4991308;28;20637;-80
2023/07/24 10:53:36;;;;;;;13.45;6.47;;;22.90;99.90;;;;;;5023873;28;20076;-81
2023/07/24 10:56:02;;;;;;;13.55;5.85;;;22.80;99.90;;;;;;4976693;28;20073;-81
2023/07/24 10:58:28;;;;;;;12.23;5.72;;;22.80;99.90;;;;;;4999903;28;20489;-80
2023/07/24 11:00:56;;;;;;;10.70;5.57;;;22.80;99.90;;;;;;4987512;28;20402;-81
2023/07/24 11:03:22;;;;;;;12.15;5.40;;;22.90;99.90;;;;;;5008737;28;20033;-81
2023/07/24 11:05:48;;;;;;;12.65;5.43;;;22.90;99.90;;;;;;4993110;28;20057;-81
2023/07/24 11:08:18;;;;;;;12.85;5.38;;;23.30;99.90;;;;;;5006349;28;20044;-81
2023/07/24 11:10:52;;;;;;;12.52;5.13;;;23.30;99.90;;;;;;4991695;28;20441;-80
2023/07/24 11:13:23;;;;;;;13.80;5.90;;;23.40;99.90;;;;;;4989107;28;20045;-81
2023/07/24 11:15:50;;;;;;;13.23;5.10;;;23.70;99.90;;;;;;5006775;28;20051;-81
2023/07/24 11:18:16;;;;;;;13.75;5.20;;;23.70;99.90;;;;;;4990176;28;20041;-80
2023/07/24 11:20:48;;;;;;;11.77;4.97;;;23.70;99.90;;;;;;5008946;28;20403;-80
2023/07/24 11:23:14;;;;;;;12.47;5.33;;;23.60;99.90;;;;;;4992927;28;20128;-80
2023/07/24 11:25:41;;;;;;;11.98;5.07;;;23.40;99.90;;;;;;4975430;28;20789;-80
2023/07/24 11:28:08;;;;;;;13.25;5.00;;;23.20;99.90;;;;;;4989865;28;20030;-81
2023/07/24 11:30:34;;;;;;;9.35;4.60;;;22.80;99.90;;;;;;5001992;28;20029;-80
2023/07/24 11:33:03;;;;;;;11.77;4.35;;;22.40;99.90;;;;;;5008221;28;20042;-80
2023/07/24 11:35:29;;;;;;;10.13;4.60;;;22.00;99.90;;;;;;5007113;28;20037;-80
2023/07/24 11:37:54;;;;;;;10.55;4.53;;;21.90;99.90;;;;;;4991371;28;20516;-81
2023/07/24 11:40:20;;;;;;;10.00;4.07;;;21.80;99.90;;;;;;4992509;28;20247;-80
2023/07/24 11:42:49;;;;;;;11.02;4.07;;;21.80;99.90;;;;;;5006969;28;20052;-80
2023/07/24 11:45:15;;;;;;;10.85;4.53;;;21.80;99.90;;;;;;4991952;28;20045;-80
2023/07/24 11:47:49;;;;;;;9.48;4.22;;;21.60;99.90;;;;;;5008407;28;20033;-80
2023/07/24 11:50:15;;;;;;;10.48;4.38;;;21.50;99.90;;;;;;5007136;28;20037;-80
2023/07/24 11:52:49;;;;;;;10.52;4.90;;;21.40;99.90;;;;;;5023479;28;20415;-80
2023/07/24 11:55:30;;;;;;;10.18;4.53;;;21.30;99.90;;;;;;5007543;28;20041;-80
2023/07/24 11:57:57;;;;;;;11.38;5.22;;;21.20;99.90;;;;;;4989797;28;20064;-80
2023/07/24 12:00:23;;;;;;;11.70;4.75;;;21.30;99.90;;;;;;5001904;28;20041;-80
2023/07/24 12:02:49;;;;;;;10.43;5.15;;;21.40;99.90;;;;;;5007416;28;20037;-80
2023/07/24 12:05:15;;;;;;;11.02;4.80;;;21.60;99.90;;;;;;4975938;28;20703;-80
2023/07/24 12:07:46;;;;;;;11.15;5.32;;;21.60;99.90;;;;;;4991276;28;20051;-80
2023/07/24 12:10:13;;;;;;;13.55;5.43;;;21.60;99.90;;;;;;5005513;28;20040;-80
2023/07/24 12:12:43;;;;;;;10.98;4.90;;;22.10;99.90;;;;;;5003875;28;20111;-80
2023/07/24 12:15:09;;;;;;;11.68;5.03;;;21.90;99.90;;;;;;5008076;28;20116;-80
2023/07/24 12:17:36;;;;;;;10.32;5.05;;;22.00;99.90;;;;;;5007155;28;20045;-80
2023/07/24 12:20:04;;;;;;;11.50;5.25;;;22.20;99.90;;;;;;5007208;28;20054;-80
2023/07/24 12:22:30;;;;;;;12.57;5.20;;;22.20;99.90;;;;;;5007332;28;20120;-80
2023/07/24 12:24:56;;;;;;;11.75;5.00;;;22.40;99.90;;;;;;5007635;28;20037;-80
2023/07/24 12:27:22;;;;;;;10.90;5.07;;;22.50;99.90;;;;;;4974996;28;20191;-80
2023/07/24 12:29:47;;;;;;;12.63;5.53;;;22.40;99.90;;;;;;4985447;28;20128;-80
2023/07/24 12:32:13;;;;;;;11.20;4.53;;;22.30;99.90;;;;;;5017493;28;20390;-80
2023/07/24 12:34:39;;;;;;;10.85;4.40;;;22.10;99.90;;;;;;4977203;28;20034;-80